Time;durP1;ratioP1;P1;durP2;ratioP2;P2;SDS_P1;SDS_P2;PMS_P1;PMS_P2;Temp;Humidity;BMP_temperature;BMP_pressure;BME280_temperature;BME280_humidity;BME280_pressure;Samples;Min_cycle;Max_cycle;Signal;HPM_P1;HPM_P2
2021/06/11 00:00:22;;;;;;;4.18;3.50;;;23.20;43.60;;;;;;8394482;28;20037;-46
2021/06/11 00:04:23;;;;;;;4.28;3.83;;;23.20;43.60;;;;;;8394291;28;20111;-45
2021/06/11 00:08:23;;;;;;;4.90;3.97;;;23.10;43.60;;;;;;8367487;28;20131;-45
2021/06/11 00:12:24;;;;;;;4.33;3.93;;;23.20;43.60;;;;;;8398719;28;20033;-45
2021/06/11 00:16:24;;;;;;;4.50;3.73;;;23.20;43.60;;;;;;8372729;28;20276;-45
2021/06/11 00:20:25;;;;;;;4.47;3.75;;;23.10;44.10;;;;;;8359243;28;20067;-45
2021/06/11 00:24:26;;;;;;;4.55;3.72;;;23.10;43.60;;;;;;8360102;28;20037;-45
2021/06/11 00:28:27;;;;;;;5.90;3.85;;;23.20;43.60;;;;;;8364919;28;20045;-46
2021/06/11 00:32:27;;;;;;;5.83;4.03;;;23.10;43.60;;;;;;8360243;28;20029;-46
2021/06/11 00:36:28;;;;;;;4.80;3.93;;;23.10;43.60;;;;;;8360319;28;20051;-45
2021/06/11 00:40:29;;;;;;;4.97;4.13;;;23.10;43.60;;;;;;8381817;28;20040;-45
2021/06/11 00:44:30;;;;;;;3.67;3.25;;;23.10;43.60;;;;;;8365477;28;20748;-47
2021/06/11 00:48:30;;;;;;;4.40;3.73;;;23.10;43.60;;;;;;8373700;28;20090;-49
2021/06/11 00:52:32;;;;;;;4.30;3.90;;;23.10;43.60;;;;;;8392783;28;20275;-48
2021/06/11 00:56:33;;;;;;;5.50;4.00;;;23.10;43.60;;;;;;8390751;28;20041;-49
2021/06/11 01:00:34;;;;;;;4.72;3.90;;;23.10;43.60;;;;;;8392556;28;20127;-46
2021/06/11 01:04:34;;;;;;;4.93;3.70;;;23.10;43.60;;;;;;8396985;28;20074;-47
2021/06/11 01:08:35;;;;;;;4.63;3.70;;;23.10;43.70;;;;;;8384472;28;20295;-46
2021/06/11 01:12:37;;;;;;;6.15;3.92;;;23.10;43.60;;;;;;8374028;28;20523;-47
2021/06/11 01:16:39;;;;;;;5.55;3.83;;;23.10;43.60;;;;;;8369325;28;20033;-46
2021/06/11 01:20:41;;;;;;;4.63;3.75;;;23.10;43.60;;;;;;8368418;28;20031;-46
2021/06/11 01:25:07;;;;;;;4.43;3.78;;;23.00;43.60;;;;;;8376245;28;20053;-46
2021/06/11 01:29:14;;;;;;;4.70;3.78;;;23.00;43.60;;;;;;8357108;28;20045;-46
2021/06/11 01:33:17;;;;;;;4.35;3.70;;;23.00;43.60;;;;;;8358444;28;20075;-47
2021/06/11 01:37:24;;;;;;;4.60;3.70;;;23.00;43.60;;;;;;8358419;28;20055;-47
2021/06/11 01:41:25;;;;;;;5.07;4.00;;;23.00;43.60;;;;;;8390613;28;20040;-47
2021/06/11 01:45:25;;;;;;;5.00;4.03;;;23.00;43.60;;;;;;8391282;28;20119;-46
2021/06/11 01:49:28;;;;;;;5.27;4.27;;;23.00;43.60;;;;;;8391374;28;20165;-47
2021/06/11 01:53:29;;;;;;;5.70;3.70;;;23.00;43.60;;;;;;8389713;28;20326;-46
2021/06/11 01:57:31;;;;;;;5.05;4.38;;;23.00;43.60;;;;;;8377822;28;20025;-48
2021/06/11 02:01:33;;;;;;;4.15;3.75;;;23.00;43.60;;;;;;8362366;28;20115;-46
2021/06/11 02:05:34;;;;;;;4.18;3.75;;;22.90;43.60;;;;;;8362289;28;20085;-46
2021/06/11 02:09:36;;;;;;;;;;;22.90;43.60;;;;;;8398215;28;20048;-47
2021/06/11 02:13:41;;;;;;;4.20;3.80;;;22.90;43.60;;;;;;8397957;28;19909;-46
2021/06/11 02:17:44;;;;;;;5.15;3.72;;;22.90;43.60;;;;;;8400656;28;20040;-46
2021/06/11 02:21:45;;;;;;;5.35;4.55;;;22.90;43.60;;;;;;8397528;28;20032;-48
2021/06/11 02:25:46;;;;;;;4.37;3.80;;;22.90;43.60;;;;;;8397404;28;20066;-47
2021/06/11 02:29:46;;;;;;;4.32;3.80;;;22.90;43.60;;;;;;8395465;28;20508;-48
2021/06/11 02:33:47;;;;;;;4.20;3.53;;;22.90;43.60;;;;;;8401567;28;20036;-46
2021/06/11 02:37:48;;;;;;;4.60;3.80;;;22.90;43.80;;;;;;8398131;28;20389;-46
2021/06/11 02:41:53;;;;;;;4.63;3.90;;;22.90;43.60;;;;;;8395572;28;20041;-46
2021/06/11 02:46:05;;;;;;;6.20;4.00;;;22.90;43.60;;;;;;8396680;28;20033;-46
2021/06/11 02:50:15;;;;;;;4.30;3.80;;;22.90;43.60;;;;;;8392514;28;20083;-47
2021/06/11 02:54:41;;;;;;;4.68;3.80;;;22.80;43.60;;;;;;8379435;28;20477;-45
2021/06/11 02:58:55;;;;;;;4.13;3.67;;;22.80;43.60;;;;;;8376259;28;20033;-46
2021/06/11 03:03:03;;;;;;;4.63;4.13;;;22.80;43.60;;;;;;8394961;28;20031;-46
2021/06/11 03:07:05;;;;;;;6.35;4.47;;;22.80;43.60;;;;;;8396159;28;20052;-45
2021/06/11 03:11:10;;;;;;;4.55;3.30;;;22.80;43.60;;;;;;8392189;28;20090;-46
2021/06/11 03:15:11;;;;;;;4.90;4.00;;;22.80;43.60;;;;;;8367072;28;20033;-46
2021/06/11 03:19:12;;;;;;;;;;;22.80;43.60;;;;;;8362960;28;20033;-46
2021/06/11 03:23:19;;;;;;;4.87;3.90;;;22.80;43.60;;;;;;8361525;28;19940;-46
2021/06/11 03:27:24;;;;;;;4.57;3.75;;;22.80;43.60;;;;;;8362465;28;20053;-46
2021/06/11 03:31:34;;;;;;;4.25;3.72;;;22.70;43.60;;;;;;8362076;28;20087;-46
2021/06/11 03:35:40;;;;;;;4.13;3.73;;;22.80;43.60;;;;;;8365110;28;20490;-45
2021/06/11 03:40:03;;;;;;;4.60;3.55;;;22.70;43.60;;;;;;8377184;28;20044;-46
2021/06/11 03:44:09;;;;;;;4.00;3.60;;;22.70;43.60;;;;;;8393345;28;20036;-45
2021/06/11 03:48:13;;;;;;;4.97;3.80;;;22.70;43.60;;;;;;8395162;28;20127;-46
2021/06/11 03:52:14;;;;;;;4.97;3.92;;;22.70;43.60;;;;;;8394538;28;20035;-45
2021/06/11 03:56:17;;;;;;;4.40;4.00;;;22.70;43.60;;;;;;8393961;28;20033;-46
2021/06/11 04:00:20;;;;;;;4.35;3.85;;;22.70;43.60;;;;;;8373292;28;20039;-46
2021/06/11 04:04:21;;;;;;;4.65;4.13;;;22.70;43.60;;;;;;8394892;28;20452;-47
2021/06/11 04:08:24;;;;;;;6.32;4.30;;;22.70;43.60;;;;;;8363335;28;20041;-45
2021/06/11 04:12:29;;;;;;;5.57;3.85;;;22.70;43.60;;;;;;8365510;28;20029;-48
2021/06/11 04:16:33;;;;;;;4.22;3.65;;;22.70;43.60;;;;;;8382812;28;20044;-46
2021/06/11 04:20:34;;;;;;;6.25;3.45;;;22.70;43.60;;;;;;8392110;28;20508;-47
2021/06/11 04:24:37;;;;;;;4.45;3.95;;;22.70;43.60;;;;;;8379157;28;20071;-46
2021/06/11 04:28:39;;;;;;;4.35;3.67;;;22.70;43.60;;;;;;8360201;28;20523;-46
2021/06/11 04:32:41;;;;;;;5.93;4.25;;;22.70;43.60;;;;;;8363324;28;20474;-46
2021/06/11 04:36:43;;;;;;;4.30;3.85;;;22.60;43.60;;;;;;8375418;28;20029;-46
2021/06/11 04:40:44;;;;;;;5.40;3.80;;;22.70;43.60;;;;;;8369224;28;20061;-46
2021/06/11 04:44:46;;;;;;;5.85;4.22;;;22.60;43.60;;;;;;8383135;28;20033;-46
2021/06/11 04:48:47;;;;;;;5.15;4.65;;;22.60;43.60;;;;;;8366031;28;20045;-47
2021/06/11 04:52:47;;;;;;;4.57;3.90;;;22.60;43.60;;;;;;8386790;28;20477;-46
2021/06/11 04:56:48;;;;;;;4.53;3.70;;;22.60;43.60;;;;;;8360095;28;20278;-50
2021/06/11 05:00:48;;;;;;;6.10;4.00;;;22.60;43.50;;;;;;8378484;28;20040;-46
2021/06/11 05:04:49;;;;;;;5.03;4.30;;;22.60;43.60;;;;;;8369872;28;20276;-49
2021/06/11 05:08:49;;;;;;;5.63;3.60;;;22.60;43.60;;;;;;8395289;28;20041;-47
2021/06/11 05:12:50;;;;;;;5.13;3.50;;;22.60;43.60;;;;;;8375829;28;20037;-47
2021/06/11 05:16:50;;;;;;;4.53;3.90;;;22.70;43.60;;;;;;8381826;28;20056;-47
2021/06/11 05:20:51;;;;;;;4.77;3.93;;;22.70;43.40;;;;;;8358356;28;20033;-47
2021/06/11 05:24:52;;;;;;;4.63;3.85;;;22.80;43.30;;;;;;8363125;28;20103;-48
2021/06/11 05:28:52;;;;;;;4.73;3.90;;;22.80;43.00;;;;;;8382244;28;20527;-48
2021/06/11 05:32:54;;;;;;;4.97;3.73;;;23.00;42.80;;;;;;8391427;28;20123;-48
2021/06/11 05:36:54;;;;;;;4.30;3.90;;;23.20;42.50;;;;;;8391517;28;20775;-48
2021/06/11 05:40:55;;;;;;;5.23;3.70;;;23.20;42.30;;;;;;8393710;28;20036;-47
2021/06/11 05:44:56;;;;;;;4.60;3.67;;;23.20;42.20;;;;;;8391472;28;20032;-46
2021/06/11 05:48:57;;;;;;;4.63;3.97;;;23.30;42.30;;;;;;8391202;28;20568;-46
2021/06/11 05:52:58;;;;;;;5.15;4.00;;;23.20;42.30;;;;;;8389391;28;20036;-48
2021/06/11 05:56:58;;;;;;;3.97;3.53;;;23.30;42.30;;;;;;8391402;28;20417;-47
2021/06/11 06:00:59;;;;;;;4.18;3.47;;;23.20;42.30;;;;;;8395697;28;20025;-46
2021/06/11 06:04:59;;;;;;;5.00;4.10;;;23.20;42.40;;;;;;8387985;27;20064;-49
2021/06/11 06:09:00;;;;;;;7.23;4.20;;;23.10;42.60;;;;;;8358199;28;20401;-47
2021/06/11 06:13:00;;;;;;;3.87;3.37;;;23.10;42.60;;;;;;8358208;28;20029;-47
2021/06/11 06:17:01;;;;;;;4.73;3.63;;;23.00;42.60;;;;;;8385609;28;20132;-46
2021/06/11 06:21:02;;;;;;;4.60;3.67;;;23.00;42.70;;;;;;8367561;28;20267;-46
2021/06/11 06:25:05;;;;;;;3.95;3.50;;;23.00;42.80;;;;;;8390745;28;20051;-48
2021/06/11 06:29:05;;;;;;;4.25;3.63;;;22.90;42.80;;;;;;8388899;28;20048;-47
2021/06/11 06:33:06;;;;;;;4.10;3.70;;;22.90;42.90;;;;;;8381424;28;20025;-48
2021/06/11 06:37:10;;;;;;;4.50;3.33;;;22.90;43.00;;;;;;8360988;28;20032;-46
2021/06/11 06:41:10;;;;;;;4.18;3.63;;;22.80;43.00;;;;;;8358468;28;20033;-47
2021/06/11 06:45:13;;;;;;;3.77;3.30;;;22.80;43.00;;;;;;8390510;28;20032;-45
2021/06/11 06:49:14;;;;;;;4.47;3.90;;;22.80;43.00;;;;;;8370579;28;20036;-44
2021/06/11 06:53:14;;;;;;;4.40;4.00;;;22.80;43.10;;;;;;8362332;28;20060;-48
2021/06/11 06:57:15;;;;;;;3.97;3.58;;;22.80;43.20;;;;;;8362600;28;20063;-47
2021/06/11 07:01:15;;;;;;;4.40;4.00;;;22.80;43.20;;;;;;8362540;28;20160;-48
2021/06/11 07:05:16;;;;;;;4.13;3.60;;;22.80;43.20;;;;;;8361531;28;20022;-47
2021/06/11 07:09:17;;;;;;;6.20;3.70;;;22.80;43.20;;;;;;8367680;28;20052;-47
2021/06/11 07:13:18;;;;;;;3.88;3.50;;;22.80;43.30;;;;;;8383190;28;20752;-47
2021/06/11 07:17:18;;;;;;;4.90;4.07;;;22.80;43.20;;;;;;8394330;28;20029;-46
2021/06/11 07:21:19;;;;;;;4.82;3.88;;;22.70;43.30;;;;;;8382750;28;20044;-47
2021/06/11 07:25:19;;;;;;;4.33;3.63;;;22.80;43.30;;;;;;8382872;28;20128;-47
2021/06/11 07:29:20;;;;;;;5.60;4.17;;;22.80;43.30;;;;;;8373159;28;20082;-46
2021/06/11 07:33:21;;;;;;;4.80;3.65;;;22.70;43.30;;;;;;8383378;28;20095;-46
2021/06/11 07:37:22;;;;;;;4.60;4.20;;;22.80;43.40;;;;;;8362121;28;20470;-48
2021/06/11 07:41:23;;;;;;;4.93;4.20;;;22.70;43.40;;;;;;8389531;28;20033;-46
2021/06/11 07:45:23;;;;;;;5.00;3.97;;;22.80;43.30;;;;;;8399416;28;20112;-46
2021/06/11 07:49:24;;;;;;;5.40;4.35;;;22.70;43.40;;;;;;8394788;28;20051;-46
2021/06/11 07:53:25;;;;;;;4.63;3.60;;;22.80;43.40;;;;;;8368440;28;20116;-48
2021/06/11 07:57:25;;;;;;;5.17;3.93;;;22.80;43.50;;;;;;8381334;28;20037;-46
2021/06/11 08:01:26;;;;;;;4.30;3.90;;;22.80;43.40;;;;;;8365968;28;20469;-46
2021/06/11 08:05:28;;;;;;;4.63;3.67;;;22.80;43.50;;;;;;8389035;28;20044;-46
2021/06/11 08:09:30;;;;;;;6.00;4.13;;;22.80;43.70;;;;;;8394405;28;20412;-46
2021/06/11 08:13:30;;;;;;;5.00;3.90;;;22.80;43.50;;;;;;8394485;28;20028;-47
2021/06/11 08:17:31;;;;;;;4.90;4.00;;;22.90;43.60;;;;;;8361834;28;20033;-46
2021/06/11 08:21:31;;;;;;;4.30;3.60;;;22.90;43.70;;;;;;8379086;28;20074;-47
2021/06/11 08:25:32;;;;;;;4.37;3.53;;;22.80;43.60;;;;;;8393490;28;20067;-46
2021/06/11 08:29:33;;;;;;;4.35;3.80;;;22.90;43.90;;;;;;8386055;28;20099;-46
2021/06/11 08:33:33;;;;;;;4.47;3.63;;;22.90;44.00;;;;;;8374832;28;20021;-47
2021/06/11 08:37:34;;;;;;;4.37;3.97;;;22.90;43.90;;;;;;8373932;28;20048;-47
2021/06/11 08:41:35;;;;;;;;;;;22.90;44.00;;;;;;8383680;27;20021;-47
2021/06/11 08:45:36;;;;;;;7.17;3.33;;;22.90;44.00;;;;;;8359969;28;19955;-47
2021/06/11 08:49:36;;;;;;;4.63;3.75;;;22.90;43.60;;;;;;8382687;28;20489;-48
2021/06/11 08:53:38;;;;;;;4.77;3.77;;;22.90;43.60;;;;;;8385040;28;20021;-49
2021/06/11 08:57:39;;;;;;;4.35;3.72;;;23.00;43.80;;;;;;8364316;28;20075;-46
2021/06/11 09:01:41;;;;;;;4.20;3.40;;;23.00;44.10;;;;;;8359804;28;20478;-47
2021/06/11 09:05:44;;;;;;;7.55;4.07;;;23.00;43.60;;;;;;8357673;28;20500;-46
2021/06/11 09:09:56;;;;;;;5.35;3.67;;;23.00;43.60;;;;;;8374967;28;20044;-45
2021/06/11 09:14:03;;;;;;;3.88;3.33;;;23.10;43.80;;;;;;8394981;28;20062;-46
2021/06/11 09:18:22;;;;;;;4.18;3.65;;;23.10;43.70;;;;;;8391757;28;20121;-48
2021/06/11 09:22:39;;;;;;;5.20;4.20;;;23.10;43.80;;;;;;8392045;28;20191;-48
2021/06/11 09:26:40;;;;;;;4.15;3.60;;;23.20;43.70;;;;;;8389906;28;20044;-47
2021/06/11 09:30:40;;;;;;;3.90;3.50;;;23.10;43.40;;;;;;8391803;28;20038;-47
2021/06/11 09:34:47;;;;;;;4.23;3.70;;;23.20;43.60;;;;;;8396122;28;20043;-49
2021/06/11 09:38:48;;;;;;;3.45;3.13;;;23.20;43.50;;;;;;8390862;28;20197;-45
2021/06/11 09:42:49;;;;;;;6.50;3.93;;;23.20;43.40;;;;;;8392041;28;20028;-46
2021/06/11 09:46:49;;;;;;;;;;;23.20;43.30;;;;;;8390497;28;20135;-46
2021/06/11 09:50:51;;;;;;;4.53;3.70;;;23.30;43.40;;;;;;8389610;28;19954;-47
2021/06/11 09:54:51;;;;;;;3.80;3.30;;;23.30;43.40;;;;;;8395704;28;20047;-46
2021/06/11 09:58:54;;;;;;;4.57;3.83;;;23.30;43.30;;;;;;8389511;28;20119;-49
2021/06/11 10:02:57;;;;;;;4.82;3.67;;;23.30;43.40;;;;;;8367069;28;20040;-51
2021/06/11 10:06:58;;;;;;;5.15;4.47;;;23.30;43.30;;;;;;8390922;28;20044;-47
2021/06/11 10:11:01;;;;;;;4.40;4.00;;;23.30;43.20;;;;;;8369043;28;20087;-46
2021/06/11 10:15:02;;;;;;;4.65;4.10;;;23.40;43.20;;;;;;8390907;28;20037;-47
2021/06/11 10:19:03;;;;;;;4.90;3.88;;;23.40;43.20;;;;;;8390852;28;20082;-48
2021/06/11 10:23:05;;;;;;;5.20;4.00;;;23.40;43.20;;;;;;8364289;28;20448;-47
2021/06/11 10:27:07;;;;;;;4.75;4.10;;;23.40;43.20;;;;;;8394041;28;20033;-49
2021/06/11 10:31:11;;;;;;;4.60;4.00;;;23.50;43.20;;;;;;8399520;28;20120;-51
2021/06/11 10:35:12;;;;;;;5.93;4.40;;;23.50;43.10;;;;;;8392805;28;20045;-49
2021/06/11 10:39:13;;;;;;;5.28;4.03;;;23.60;43.20;;;;;;8364020;28;20572;-48
2021/06/11 10:43:23;;;;;;;5.28;4.07;;;23.50;43.10;;;;;;8363896;28;20030;-47
2021/06/11 10:47:25;;;;;;;4.78;4.00;;;23.60;43.10;;;;;;8366884;28;20037;-47
2021/06/11 10:51:31;;;;;;;;;;;23.60;43.10;;;;;;8376977;28;20489;-49
2021/06/11 10:55:44;;;;;;;4.60;3.85;;;23.60;43.00;;;;;;8396432;28;19908;-49
2021/06/11 10:59:48;;;;;;;5.15;4.00;;;23.60;43.00;;;;;;8394884;28;20115;-47
2021/06/11 11:03:49;;;;;;;4.78;4.05;;;23.60;43.00;;;;;;8396309;28;20693;-46
2021/06/11 11:07:50;;;;;;;4.40;4.00;;;23.70;43.00;;;;;;8400583;28;20083;-46
2021/06/11 11:11:58;;;;;;;5.03;4.13;;;23.70;43.00;;;;;;8386268;28;20029;-45
2021/06/11 11:15:59;;;;;;;4.93;4.28;;;23.70;42.90;;;;;;8362777;28;20087;-45
2021/06/11 11:20:05;;;;;;;4.63;4.03;;;23.70;42.90;;;;;;8387049;28;20124;-45
2021/06/11 11:24:12;;;;;;;6.03;4.30;;;23.80;42.90;;;;;;8400076;28;20374;-45
2021/06/11 11:28:14;;;;;;;5.38;4.25;;;23.80;42.90;;;;;;8394731;28;20638;-47
2021/06/11 11:32:15;;;;;;;4.53;3.83;;;23.80;42.90;;;;;;8393783;28;20436;-46
2021/06/11 11:36:15;;;;;;;5.33;4.47;;;23.80;42.80;;;;;;8395553;28;20036;-46
2021/06/11 11:40:16;;;;;;;4.87;4.00;;;23.90;42.80;;;;;;8394012;28;20286;-47
2021/06/11 11:44:16;;;;;;;4.45;4.05;;;23.90;42.80;;;;;;8398078;28;20035;-46
2021/06/11 11:48:23;;;;;;;5.40;4.43;;;23.90;42.80;;;;;;8382939;28;20045;-45
2021/06/11 11:52:24;;;;;;;5.70;4.32;;;23.90;42.70;;;;;;8382541;28;20119;-46
2021/06/11 11:56:25;;;;;;;5.40;4.40;;;24.00;42.80;;;;;;8388214;28;20037;-45
2021/06/11 12:00:31;;;;;;;4.57;4.10;;;24.00;42.70;;;;;;8365963;28;20437;-46
2021/06/11 12:04:31;;;;;;;5.70;4.18;;;24.00;42.70;;;;;;8361373;28;20505;-45
2021/06/11 12:08:32;;;;;;;5.07;4.30;;;24.10;42.70;;;;;;8359921;28;20051;-45
2021/06/11 12:12:32;;;;;;;5.35;4.45;;;24.10;42.70;;;;;;8361111;28;20486;-47
2021/06/11 12:16:34;;;;;;;4.83;4.30;;;24.10;42.60;;;;;;8382625;28;20068;-46
2021/06/11 12:20:34;;;;;;;5.45;4.30;;;24.10;42.50;;;;;;8396406;28;20074;-47
2021/06/11 12:24:36;;;;;;;6.07;4.17;;;24.10;42.50;;;;;;8393982;28;20040;-47
2021/06/11 12:28:36;;;;;;;5.40;3.97;;;24.20;42.40;;;;;;8393617;28;20290;-46
2021/06/11 12:32:37;;;;;;;5.00;4.27;;;24.20;42.50;;;;;;8391612;28;20074;-47
2021/06/11 12:36:37;;;;;;;5.43;4.30;;;24.20;42.40;;;;;;8398018;28;20263;-46
2021/06/11 12:40:38;;;;;;;5.25;4.63;;;24.20;42.40;;;;;;8355847;28;20095;-49
2021/06/11 12:44:39;;;;;;;5.78;4.72;;;24.30;42.40;;;;;;8365048;28;20074;-46
2021/06/11 12:48:39;;;;;;;5.35;4.57;;;24.30;42.40;;;;;;8378067;28;20086;-46
2021/06/11 12:52:40;;;;;;;5.65;4.10;;;24.30;42.30;;;;;;8387122;28;20063;-44
2021/06/11 12:56:42;;;;;;;5.70;4.57;;;24.30;42.40;;;;;;8358457;28;20575;-47
2021/06/11 13:00:43;;;;;;;5.28;4.43;;;24.40;42.30;;;;;;8373208;28;20072;-45
2021/06/11 13:04:44;;;;;;;5.10;4.50;;;24.40;42.40;;;;;;8386280;28;20458;-47
2021/06/11 13:08:44;;;;;;;;;;;24.40;42.40;;;;;;8362691;28;20063;-46
2021/06/11 13:12:45;;;;;;;5.33;4.83;;;24.40;42.30;;;;;;8380283;28;19919;-47
2021/06/11 13:16:45;;;;;;;4.90;4.40;;;24.40;42.10;;;;;;8382910;28;20040;-45
2021/06/11 13:20:46;;;;;;;5.30;4.80;;;24.40;42.10;;;;;;8379607;28;20505;-46
2021/06/11 13:24:47;;;;;;;6.45;4.70;;;24.40;42.20;;;;;;8340526;28;20037;-47
2021/06/11 13:28:48;;;;;;;5.85;4.80;;;24.40;42.10;;;;;;8354413;28;20490;-48
2021/06/11 13:32:49;;;;;;;5.60;4.78;;;24.40;42.20;;;;;;8356650;28;20111;-46
2021/06/11 13:36:49;;;;;;;5.72;4.90;;;24.40;42.20;;;;;;8358866;28;20079;-47
2021/06/11 13:40:50;;;;;;;6.35;5.00;;;24.40;42.10;;;;;;8375522;28;20040;-46
2021/06/11 13:44:51;;;;;;;6.10;5.07;;;24.40;42.30;;;;;;8381815;28;20134;-47
2021/06/11 13:48:51;;;;;;;5.75;4.43;;;24.40;42.30;;;;;;8362872;28;20091;-47
2021/06/11 13:52:53;;;;;;;6.78;5.28;;;24.40;42.30;;;;;;8356409;28;20064;-46
2021/06/11 13:56:53;;;;;;;6.32;4.85;;;24.40;42.20;;;;;;8353510;28;20033;-46
2021/06/11 14:00:54;;;;;;;5.63;4.90;;;24.50;42.30;;;;;;8330023;28;20075;-46
2021/06/11 14:04:54;;;;;;;5.68;4.63;;;24.50;42.30;;;;;;8382304;28;20139;-46
2021/06/11 14:08:55;;;;;;;5.95;4.95;;;24.50;42.30;;;;;;8377568;28;20541;-45
2021/06/11 14:12:55;;;;;;;6.57;5.30;;;24.50;42.30;;;;;;8358821;28;20037;-45
2021/06/11 14:16:56;;;;;;;5.22;4.68;;;24.50;42.20;;;;;;8355706;28;20286;-47
2021/06/11 14:20:56;;;;;;;6.20;5.10;;;24.50;42.30;;;;;;8349920;28;20399;-48
2021/06/11 14:24:57;;;;;;;6.05;4.85;;;24.50;42.20;;;;;;8355702;28;20037;-46
2021/06/11 14:28:58;;;;;;;6.60;5.25;;;24.50;42.20;;;;;;8382328;28;20076;-46
2021/06/11 14:32:59;;;;;;;5.50;4.38;;;24.60;42.20;;;;;;8380892;28;20026;-45
2021/06/11 14:37:00;;;;;;;4.93;4.25;;;24.50;42.20;;;;;;8375241;28;20045;-46
2021/06/11 14:41:00;;;;;;;6.20;5.22;;;24.60;42.20;;;;;;8393250;28;20496;-49
2021/06/11 14:45:02;;;;;;;6.35;5.05;;;24.60;42.20;;;;;;8380869;28;20116;-47
2021/06/11 14:49:02;;;;;;;7.07;5.32;;;24.60;42.10;;;;;;8357276;28;20041;-46
2021/06/11 14:53:13;;;;;;;6.03;4.63;;;24.60;42.10;;;;;;8382058;28;20036;-45
2021/06/11 14:57:15;;;;;;;6.03;5.10;;;24.60;42.00;;;;;;8385105;28;20505;-45
2021/06/11 15:01:16;;;;;;;5.30;4.50;;;24.60;42.00;;;;;;8396394;28;20036;-45
2021/06/11 15:05:17;;;;;;;5.57;5.00;;;24.60;42.00;;;;;;8400649;28;20041;-48
2021/06/11 15:09:17;;;;;;;;;;;24.60;42.10;;;;;;8378811;28;20049;-49
2021/06/11 15:13:22;;;;;;;7.57;5.47;;;24.60;42.00;;;;;;8357722;28;20277;-46
2021/06/11 15:17:22;;;;;;;5.07;4.57;;;24.70;42.40;;;;;;8369689;28;20025;-45
2021/06/11 15:21:23;;;;;;;7.28;5.57;;;24.60;42.20;;;;;;8395291;28;20102;-46
2021/06/11 15:25:24;;;;;;;5.47;4.97;;;24.70;42.30;;;;;;8371660;28;20075;-46
2021/06/11 15:29:24;;;;;;;5.60;4.93;;;24.70;42.30;;;;;;8389443;28;20127;-46
2021/06/11 15:33:25;;;;;;;7.15;5.05;;;24.70;42.10;;;;;;8386783;28;20025;-45
2021/06/11 15:37:25;;;;;;;6.20;4.97;;;24.70;42.20;;;;;;8362229;28;20036;-49
2021/06/11 15:41:28;;;;;;;5.03;4.30;;;24.70;42.10;;;;;;8358259;28;20462;-47
2021/06/11 15:45:29;;;;;;;6.13;5.03;;;24.70;42.20;;;;;;8361790;28;20042;-46
2021/06/11 15:49:29;;;;;;;5.03;4.53;;;24.70;42.10;;;;;;8387817;28;20600;-47
2021/06/11 15:53:30;;;;;;;5.65;5.07;;;24.80;42.10;;;;;;8368367;28;20190;-46
2021/06/11 15:57:31;;;;;;;5.93;5.05;;;24.70;42.10;;;;;;8393826;28;20055;-45
2021/06/11 16:01:32;;;;;;;5.38;4.53;;;24.70;42.10;;;;;;8394401;28;20109;-46
2021/06/11 16:05:33;;;;;;;6.88;5.03;;;24.70;42.20;;;;;;8392573;28;20035;-45
2021/06/11 16:09:33;;;;;;;7.40;5.15;;;24.70;42.10;;;;;;8398610;28;20127;-46
2021/06/11 16:13:34;;;;;;;7.75;5.30;;;24.70;42.20;;;;;;8393972;28;20035;-46
2021/06/11 16:17:35;;;;;;;5.82;4.93;;;24.70;42.20;;;;;;8392418;28;20082;-47
2021/06/11 16:21:36;;;;;;;;;;;24.70;42.10;;;;;;8394382;28;20025;-45
2021/06/11 16:25:38;;;;;;;5.68;4.60;;;24.70;42.20;;;;;;8397059;28;19916;-45
2021/06/11 16:29:38;;;;;;;6.07;4.65;;;24.70;42.20;;;;;;8391864;28;20036;-47
2021/06/11 16:33:39;;;;;;;6.07;5.20;;;24.80;42.20;;;;;;8393508;28;20041;-47
2021/06/11 16:37:40;;;;;;;5.05;4.45;;;24.70;42.30;;;;;;8393042;28;20298;-46
2021/06/11 16:41:40;;;;;;;5.57;5.07;;;24.70;42.30;;;;;;8391011;28;20033;-44
2021/06/11 16:45:43;;;;;;;5.68;4.85;;;24.70;42.40;;;;;;8397079;28;20105;-46
2021/06/11 16:49:43;;;;;;;6.57;4.97;;;24.70;42.50;;;;;;8392339;28;20045;-48
2021/06/11 16:53:44;;;;;;;9.77;5.28;;;24.70;42.30;;;;;;8390825;28;20036;-46
2021/06/11 16:57:44;;;;;;;5.82;5.13;;;24.70;42.30;;;;;;8377029;28;20035;-46
2021/06/11 17:01:49;;;;;;;7.32;4.90;;;24.80;42.40;;;;;;8387801;28;20530;-45
2021/06/11 17:05:50;;;;;;;7.55;5.15;;;24.80;42.30;;;;;;8390458;28;20032;-46
2021/06/11 17:09:51;;;;;;;5.72;4.70;;;24.70;42.40;;;;;;8392392;28;20123;-45
2021/06/11 17:13:51;;;;;;;6.78;5.05;;;24.70;42.50;;;;;;8365938;28;20449;-45
2021/06/11 17:17:52;;;;;;;6.72;4.72;;;24.70;42.50;;;;;;8371997;28;20029;-46
2021/06/11 17:21:53;;;;;;;6.07;5.13;;;24.70;42.50;;;;;;8391740;28;20028;-47
2021/06/11 17:26:03;;;;;;;7.05;5.20;;;24.70;42.60;;;;;;8390009;28;20500;-46
2021/06/11 17:30:16;;;;;;;6.70;5.25;;;24.70;42.60;;;;;;8391555;28;20139;-45
2021/06/11 17:34:29;;;;;;;4.97;4.32;;;24.70;42.50;;;;;;8391689;28;20044;-46
2021/06/11 17:38:29;;;;;;;5.55;4.75;;;24.70;42.60;;;;;;8394438;28;20082;-45
2021/06/11 17:42:30;;;;;;;5.53;5.03;;;24.70;42.70;;;;;;8391344;28;20495;-47
2021/06/11 17:46:31;;;;;;;5.82;4.70;;;24.70;42.60;;;;;;8369209;28;20082;-45
2021/06/11 17:50:33;;;;;;;6.28;5.40;;;24.70;42.50;;;;;;8361937;28;20048;-47
2021/06/11 17:54:35;;;;;;;5.38;4.72;;;24.70;42.60;;;;;;8391097;28;20037;-47
2021/06/11 17:58:35;;;;;;;5.65;4.97;;;24.70;42.50;;;;;;8395978;28;20041;-46
2021/06/11 18:02:36;;;;;;;5.18;4.55;;;24.60;42.50;;;;;;8389472;28;20037;-45
2021/06/11 18:06:37;;;;;;;5.10;4.32;;;24.60;42.50;;;;;;8390921;28;20607;-46
2021/06/11 18:10:37;;;;;;;7.40;4.80;;;24.70;42.50;;;;;;8390757;28;20028;-46
2021/06/11 18:14:38;;;;;;;5.78;4.97;;;24.60;42.40;;;;;;8387282;28;20028;-47
2021/06/11 18:18:40;;;;;;;5.47;4.63;;;24.60;42.40;;;;;;8357633;28;20437;-46
2021/06/11 18:22:43;;;;;;;6.75;5.50;;;24.60;42.60;;;;;;8380689;28;20039;-46
2021/06/11 18:27:08;;;;;;;5.47;4.47;;;24.60;42.50;;;;;;8356990;28;20398;-46
2021/06/11 18:31:08;;;;;;;6.13;4.93;;;24.60;42.70;;;;;;8376608;28;20100;-47
2021/06/11 18:35:12;;;;;;;5.60;5.03;;;24.60;42.90;;;;;;8390917;28;20521;-46
2021/06/11 18:39:12;;;;;;;7.13;5.25;;;24.60;43.00;;;;;;8368862;28;20037;-46
2021/06/11 18:43:17;;;;;;;6.93;5.30;;;24.60;43.10;;;;;;8370720;28;20446;-47
2021/06/11 18:47:18;;;;;;;7.18;5.85;;;24.60;43.20;;;;;;8384321;28;20044;-48
2021/06/11 18:51:26;;;;;;;6.00;5.28;;;24.60;43.20;;;;;;8400759;28;20381;-46
2021/06/11 18:55:27;;;;;;;7.22;5.38;;;24.50;43.10;;;;;;8396677;28;20124;-46
2021/06/11 18:59:29;;;;;;;7.13;5.60;;;24.60;43.30;;;;;;8389973;28;20029;-47
2021/06/11 19:03:29;;;;;;;6.53;5.57;;;24.50;43.30;;;;;;8377012;28;20363;-45
2021/06/11 19:07:41;;;;;;;6.93;5.78;;;24.50;43.30;;;;;;8396331;28;20048;-45
2021/06/11 19:11:43;;;;;;;6.10;5.25;;;24.50;43.30;;;;;;8373885;28;20115;-46
2021/06/11 19:15:43;;;;;;;5.78;5.07;;;24.50;43.30;;;;;;8380528;28;20051;-45
2021/06/11 19:19:51;;;;;;;7.05;5.68;;;24.50;43.30;;;;;;8362737;28;20065;-47
2021/06/11 19:23:52;;;;;;;6.90;5.28;;;24.50;43.30;;;;;;8361300;28;20133;-45
2021/06/11 19:27:53;;;;;;;6.57;5.20;;;24.50;43.20;;;;;;8366658;28;20037;-46
2021/06/11 19:31:55;;;;;;;6.47;5.20;;;24.50;43.20;;;;;;8360551;28;20036;-45
2021/06/11 19:35:56;;;;;;;7.88;5.80;;;24.50;43.20;;;;;;8371167;28;20405;-47
2021/06/11 19:39:57;;;;;;;6.72;5.82;;;24.50;43.80;;;;;;8394827;28;20033;-45
2021/06/11 19:44:02;;;;;;;6.65;5.45;;;24.50;43.20;;;;;;8368518;28;20044;-46
2021/06/11 19:48:11;;;;;;;6.18;5.57;;;24.50;43.10;;;;;;8399412;28;20057;-46
2021/06/11 19:52:11;;;;;;;5.70;4.68;;;24.50;43.20;;;;;;8395092;28;20146;-46
2021/06/11 19:56:13;;;;;;;6.60;5.90;;;24.50;43.20;;;;;;8365301;28;20033;-46
2021/06/11 20:00:16;;;;;;;6.10;5.50;;;24.50;43.30;;;;;;8372138;28;20246;-45
2021/06/11 20:04:19;;;;;;;6.35;5.70;;;24.50;43.30;;;;;;8399376;28;20501;-49
2021/06/11 20:08:20;;;;;;;6.47;5.72;;;24.50;43.30;;;;;;8392904;28;20066;-48
2021/06/11 20:12:31;;;;;;;6.97;5.70;;;24.50;43.30;;;;;;8394561;28;20036;-47
2021/06/11 20:16:32;;;;;;;7.22;5.75;;;24.50;43.30;;;;;;8394021;28;20033;-46
2021/06/11 20:20:32;;;;;;;6.38;5.07;;;24.50;43.30;;;;;;8392394;28;20033;-49
2021/06/11 20:24:38;;;;;;;6.40;5.72;;;24.50;43.20;;;;;;8384516;28;20620;-50
2021/06/11 20:28:39;;;;;;;6.05;5.25;;;24.50;43.10;;;;;;8360946;28;20049;-48
2021/06/11 20:32:39;;;;;;;7.65;5.45;;;24.50;43.00;;;;;;8359054;28;20033;-50
2021/06/11 20:36:40;;;;;;;7.25;5.30;;;24.50;43.10;;;;;;8360461;28;20043;-47
2021/06/11 20:40:41;;;;;;;5.88;5.05;;;24.40;43.10;;;;;;8364732;28;20509;-48
2021/06/11 20:44:42;;;;;;;7.32;5.55;;;24.40;43.10;;;;;;8358609;28;20037;-49
2021/06/11 20:48:43;;;;;;;;;;;24.40;43.10;;;;;;8360574;28;20041;-48
2021/06/11 20:52:44;;;;;;;5.73;5.13;;;24.40;43.10;;;;;;8359839;28;19962;-48
2021/06/11 20:56:45;;;;;;;7.90;5.40;;;24.40;43.00;;;;;;8358359;28;20037;-49
2021/06/11 21:00:46;;;;;;;7.15;6.07;;;24.40;43.00;;;;;;8379770;28;20032;-46